Berlin, North Dakota
Current Conditions -  °F | °C
As of 6:56 AM on Sunday 23 Nov 2014 (Local Time) from KJMS Reporting Station
Overcast Overcast  
Wind Chill: 31°   Ceiling: 9500
Heat Index: 39°   Visibility: 10mi
Dew Point: 33°   Wind: 15mph
Humidity: 79%   Direction: 280°W
Pressure: 29.4"   Gusts: NA
Location:  46.38°N, 98.49°W
Report Text: KJMS 231256Z AUTO 28013KT 10SM OVC095 04/01 A2940 RMK AO2 SLP969 T00390006
Loading
Personal Weather Stations






























Interactive Weather Map New forecast layout! Learn more

10-Day Weather Forecast

Advertisements
Track Severe Weather on mobile